sensor_id;sensor_type;location;lat;lon;timestamp;temperature;humidity
5962;DHT22;3007;50.770;0.250;2023-04-19T00:01:52;9.10;99.90
5962;DHT22;3007;50.770;0.250;2023-04-19T00:04:20;9.20;99.90
5962;DHT22;3007;50.770;0.250;2023-04-19T00:06:46;9.20;99.90
5962;DHT22;3007;50.770;0.250;2023-04-19T00:09:15;9.20;99.90
5962;DHT22;3007;50.770;0.250;2023-04-19T00:11:42;9.20;99.90
5962;DHT22;3007;50.770;0.250;2023-04-19T00:14:08;9.20;99.90
5962;DHT22;3007;50.770;0.250;2023-04-19T00:16:36;9.20;99.90
5962;DHT22;3007;50.770;0.250;2023-04-19T00:19:02;9.20;99.90
5962;DHT22;3007;50.770;0.250;2023-04-19T00:21:29;9.20;99.90
5962;DHT22;3007;50.770;0.250;2023-04-19T00:23:56;9.20;99.90
5962;DHT22;3007;50.770;0.250;2023-04-19T00:26:24;9.20;99.90
5962;DHT22;3007;50.770;0.250;2023-04-19T00:28:51;9.20;99.90
5962;DHT22;3007;50.770;0.250;2023-04-19T00:31:18;9.20;99.90
5962;DHT22;3007;50.770;0.250;2023-04-19T00:33:45;9.30;99.90
5962;DHT22;3007;50.770;0.250;2023-04-19T00:36:12;9.30;99.90
5962;DHT22;3007;50.770;0.250;2023-04-19T00:38:39;9.30;99.90
5962;DHT22;3007;50.770;0.250;2023-04-19T00:41:06;9.30;99.90
5962;DHT22;3007;50.770;0.250;2023-04-19T00:43:34;9.30;99.90
5962;DHT22;3007;50.770;0.250;2023-04-19T00:46:01;9.30;99.90
5962;DHT22;3007;50.770;0.250;2023-04-19T00:48:28;9.30;99.90
5962;DHT22;3007;50.770;0.250;2023-04-19T00:50:55;9.40;99.90
5962;DHT22;3007;50.770;0.250;2023-04-19T00:53:22;9.40;99.90
5962;DHT22;3007;50.770;0.250;2023-04-19T00:55:49;9.40;99.90
5962;DHT22;3007;50.770;0.250;2023-04-19T00:58:16;9.40;99.90
5962;DHT22;3007;50.770;0.250;2023-04-19T01:00:44;9.40;99.90
5962;DHT22;3007;50.770;0.250;2023-04-19T01:03:11;9.40;99.90
5962;DHT22;3007;50.770;0.250;2023-04-19T01:05:39;9.40;99.90
5962;DHT22;3007;50.770;0.250;2023-04-19T01:08:06;9.40;99.90
5962;DHT22;3007;50.770;0.250;2023-04-19T01:10:33;9.40;99.90
5962;DHT22;3007;50.770;0.250;2023-04-19T01:12:59;9.40;99.90
5962;DHT22;3007;50.770;0.250;2023-04-19T01:15:26;9.50;99.90
5962;DHT22;3007;50.770;0.250;2023-04-19T01:17:55;9.50;99.90
5962;DHT22;3007;50.770;0.250;2023-04-19T01:20:22;9.50;99.90
5962;DHT22;3007;50.770;0.250;2023-04-19T01:22:50;9.50;99.90
5962;DHT22;3007;50.770;0.250;2023-04-19T01:25:17;9.50;99.90
5962;DHT22;3007;50.770;0.250;2023-04-19T01:27:44;9.50;99.90
5962;DHT22;3007;50.770;0.250;2023-04-19T01:30:11;9.50;99.90
5962;DHT22;3007;50.770;0.250;2023-04-19T01:32:38;9.50;99.90
5962;DHT22;3007;50.770;0.250;2023-04-19T01:35:06;9.50;99.90
5962;DHT22;3007;50.770;0.250;2023-04-19T01:37:35;9.50;99.90
5962;DHT22;3007;50.770;0.250;2023-04-19T01:40:04;9.50;99.90
5962;DHT22;3007;50.770;0.250;2023-04-19T01:42:31;9.50;99.90
5962;DHT22;3007;50.770;0.250;2023-04-19T01:44:58;9.50;99.90
5962;DHT22;3007;50.770;0.250;2023-04-19T01:47:25;9.50;99.90
5962;DHT22;3007;50.770;0.250;2023-04-19T01:49:52;9.50;99.90
5962;DHT22;3007;50.770;0.250;2023-04-19T01:52:19;9.50;99.90
5962;DHT22;3007;50.770;0.250;2023-04-19T01:54:46;9.60;99.90
5962;DHT22;3007;50.770;0.250;2023-04-19T01:57:14;9.60;99.90
5962;DHT22;3007;50.770;0.250;2023-04-19T01:59:43;9.60;99.90
5962;DHT22;3007;50.770;0.250;2023-04-19T02:02:10;9.60;99.90
5962;DHT22;3007;50.770;0.250;2023-04-19T02:04:36;9.60;99.90
5962;DHT22;3007;50.770;0.250;2023-04-19T02:07:03;9.60;99.90
5962;DHT22;3007;50.770;0.250;2023-04-19T02:09:33;9.60;99.90
5962;DHT22;3007;50.770;0.250;2023-04-19T02:12:00;9.60;99.90
5962;DHT22;3007;50.770;0.250;2023-04-19T02:14:28;9.60;99.90
5962;DHT22;3007;50.770;0.250;2023-04-19T02:16:55;9.60;99.90
5962;DHT22;3007;50.770;0.250;2023-04-19T02:19:22;9.60;99.90
5962;DHT22;3007;50.770;0.250;2023-04-19T02:21:49;9.60;99.90
5962;DHT22;3007;50.770;0.250;2023-04-19T02:24:16;9.60;99.90
5962;DHT22;3007;50.770;0.250;2023-04-19T02:26:43;9.60;99.90
5962;DHT22;3007;50.770;0.250;2023-04-19T02:29:10;9.60;99.90
5962;DHT22;3007;50.770;0.250;2023-04-19T02:31:38;9.60;99.90
5962;DHT22;3007;50.770;0.250;2023-04-19T02:34:05;9.60;99.90
5962;DHT22;3007;50.770;0.250;2023-04-19T02:36:31;9.60;99.90
5962;DHT22;3007;50.770;0.250;2023-04-19T02:38:59;9.60;99.90
5962;DHT22;3007;50.770;0.250;2023-04-19T02:41:26;9.60;99.90
5962;DHT22;3007;50.770;0.250;2023-04-19T02:43:52;9.60;99.90
5962;DHT22;3007;50.770;0.250;2023-04-19T02:46:20;9.60;99.90
5962;DHT22;3007;50.770;0.250;2023-04-19T02:48:48;9.60;99.90
5962;DHT22;3007;50.770;0.250;2023-04-19T02:51:16;9.60;99.90
5962;DHT22;3007;50.770;0.250;2023-04-19T02:53:43;9.60;99.90
5962;DHT22;3007;50.770;0.250;2023-04-19T02:56:09;9.60;99.90
5962;DHT22;3007;50.770;0.250;2023-04-19T02:58:36;9.60;99.90
5962;DHT22;3007;50.770;0.250;2023-04-19T03:01:03;9.60;99.90
5962;DHT22;3007;50.770;0.250;2023-04-19T03:03:30;9.50;99.90
5962;DHT22;3007;50.770;0.250;2023-04-19T03:05:58;9.50;99.90
5962;DHT22;3007;50.770;0.250;2023-04-19T03:08:25;9.60;99.90
5962;DHT22;3007;50.770;0.250;2023-04-19T03:10:52;9.50;99.90
5962;DHT22;3007;50.770;0.250;2023-04-19T03:13:19;9.50;99.90
5962;DHT22;3007;50.770;0.250;2023-04-19T03:15:46;9.50;99.90
5962;DHT22;3007;50.770;0.250;2023-04-19T03:18:13;9.50;99.90
5962;DHT22;3007;50.770;0.250;2023-04-19T03:20:41;9.50;99.90
5962;DHT22;3007;50.770;0.250;2023-04-19T03:23:09;9.50;99.90
5962;DHT22;3007;50.770;0.250;2023-04-19T03:25:36;9.50;99.90
5962;DHT22;3007;50.770;0.250;2023-04-19T03:28:03;9.50;99.90
5962;DHT22;3007;50.770;0.250;2023-04-19T03:30:30;9.50;99.90
5962;DHT22;3007;50.770;0.250;2023-04-19T03:32:57;9.50;99.90
5962;DHT22;3007;50.770;0.250;2023-04-19T03:35:24;9.50;99.90
5962;DHT22;3007;50.770;0.250;2023-04-19T03:37:51;9.60;99.90
5962;DHT22;3007;50.770;0.250;2023-04-19T03:40:20;9.60;99.90
5962;DHT22;3007;50.770;0.250;2023-04-19T03:42:47;9.50;99.90
5962;DHT22;3007;50.770;0.250;2023-04-19T03:45:14;9.50;99.90
5962;DHT22;3007;50.770;0.250;2023-04-19T03:47:40;9.50;99.90
5962;DHT22;3007;50.770;0.250;2023-04-19T03:50:08;9.50;99.90
5962;DHT22;3007;50.770;0.250;2023-04-19T03:52:35;9.50;99.90
5962;DHT22;3007;50.770;0.250;2023-04-19T03:55:02;9.50;99.90
5962;DHT22;3007;50.770;0.250;2023-04-19T03:57:31;9.50;99.90
5962;DHT22;3007;50.770;0.250;2023-04-19T03:59:59;9.50;99.90
5962;DHT22;3007;50.770;0.250;2023-04-19T04:02:26;9.50;99.90
5962;DHT22;3007;50.770;0.250;2023-04-19T04:04:53;9.50;99.90
5962;DHT22;3007;50.770;0.250;2023-04-19T04:07:20;9.50;99.90
5962;DHT22;3007;50.770;0.250;2023-04-19T04:09:47;9.50;99.90
5962;DHT22;3007;50.770;0.250;2023-04-19T04:12:15;9.50;99.90
5962;DHT22;3007;50.770;0.250;2023-04-19T04:14:43;9.60;99.90
5962;DHT22;3007;50.770;0.250;2023-04-19T04:17:10;9.60;99.90
5962;DHT22;3007;50.770;0.250;2023-04-19T04:19:36;9.60;99.90
5962;DHT22;3007;50.770;0.250;2023-04-19T04:22:03;9.60;99.90
5962;DHT22;3007;50.770;0.250;2023-04-19T04:24:36;9.60;99.90
5962;DHT22;3007;50.770;0.250;2023-04-19T04:27:03;9.60;99.90
5962;DHT22;3007;50.770;0.250;2023-04-19T04:29:32;9.60;99.90
5962;DHT22;3007;50.770;0.250;2023-04-19T04:32:00;9.70;99.90
5962;DHT22;3007;50.770;0.250;2023-04-19T04:34:27;9.60;99.90
5962;DHT22;3007;50.770;0.250;2023-04-19T04:36:54;9.60;99.90
5962;DHT22;3007;50.770;0.250;2023-04-19T04:39:21;9.60;99.90
5962;DHT22;3007;50.770;0.250;2023-04-19T04:41:48;9.60;99.90
5962;DHT22;3007;50.770;0.250;2023-04-19T04:44:16;9.60;99.90
5962;DHT22;3007;50.770;0.250;2023-04-19T04:46:44;9.60;99.90
5962;DHT22;3007;50.770;0.250;2023-04-19T04:49:13;9.60;99.90
5962;DHT22;3007;50.770;0.250;2023-04-19T04:51:40;9.60;99.90
5962;DHT22;3007;50.770;0.250;2023-04-19T04:54:06;9.60;99.90
5962;DHT22;3007;50.770;0.250;2023-04-19T04:56:33;9.60;99.90
5962;DHT22;3007;50.770;0.250;2023-04-19T04:59:01;9.60;99.90
5962;DHT22;3007;50.770;0.250;2023-04-19T05:01:29;9.60;99.90
5962;DHT22;3007;50.770;0.250;2023-04-19T05:03:56;9.60;99.90
5962;DHT22;3007;50.770;0.250;2023-04-19T05:06:24;9.60;99.90
5962;DHT22;3007;50.770;0.250;2023-04-19T05:08:51;9.60;99.90
5962;DHT22;3007;50.770;0.250;2023-04-19T05:11:19;9.60;99.90
5962;DHT22;3007;50.770;0.250;2023-04-19T05:13:46;9.60;99.90
5962;DHT22;3007;50.770;0.250;2023-04-19T05:16:12;9.60;99.90
5962;DHT22;3007;50.770;0.250;2023-04-19T05:18:39;9.60;99.90
5962;DHT22;3007;50.770;0.250;2023-04-19T05:21:06;9.70;99.90
5962;DHT22;3007;50.770;0.250;2023-04-19T05:23:36;9.70;99.90
5962;DHT22;3007;50.770;0.250;2023-04-19T05:26:03;9.70;99.90
5962;DHT22;3007;50.770;0.250;2023-04-19T05:28:30;9.70;99.90
5962;DHT22;3007;50.770;0.250;2023-04-19T05:30:57;9.60;99.90
5962;DHT22;3007;50.770;0.250;2023-04-19T05:33:24;9.60;99.90
5962;DHT22;3007;50.770;0.250;2023-04-19T05:35:51;9.60;99.90
5962;DHT22;3007;50.770;0.250;2023-04-19T05:38:17;9.70;99.90
5962;DHT22;3007;50.770;0.250;2023-04-19T05:40:46;9.70;99.90
5962;DHT22;3007;50.770;0.250;2023-04-19T05:43:13;9.70;99.90
5962;DHT22;3007;50.770;0.250;2023-04-19T05:45:39;9.80;99.90
5962;DHT22;3007;50.770;0.250;2023-04-19T05:48:06;9.80;99.90
5962;DHT22;3007;50.770;0.250;2023-04-19T05:50:34;9.80;99.90
5962;DHT22;3007;50.770;0.250;2023-04-19T05:53:02;9.90;99.90
5962;DHT22;3007;50.770;0.250;2023-04-19T05:55:28;9.90;99.90
5962;DHT22;3007;50.770;0.250;2023-04-19T05:57:57;10.00;99.90
5962;DHT22;3007;50.770;0.250;2023-04-19T06:00:25;10.00;99.90
5962;DHT22;3007;50.770;0.250;2023-04-19T06:02:52;10.10;99.90
5962;DHT22;3007;50.770;0.250;2023-04-19T06:05:19;10.10;99.90
5962;DHT22;3007;50.770;0.250;2023-04-19T06:07:46;10.30;99.90
5962;DHT22;3007;50.770;0.250;2023-04-19T06:10:13;10.50;99.90
5962;DHT22;3007;50.770;0.250;2023-04-19T06:12:40;10.80;99.90
5962;DHT22;3007;50.770;0.250;2023-04-19T06:15:09;11.00;99.90
5962;DHT22;3007;50.770;0.250;2023-04-19T06:17:36;11.30;99.90
5962;DHT22;3007;50.770;0.250;2023-04-19T06:20:04;11.70;99.90
5962;DHT22;3007;50.770;0.250;2023-04-19T06:22:32;12.10;99.90
5962;DHT22;3007;50.770;0.250;2023-04-19T06:25:00;12.60;99.90
5962;DHT22;3007;50.770;0.250;2023-04-19T06:27:28;13.10;99.90
5962;DHT22;3007;50.770;0.250;2023-04-19T06:29:54;13.40;99.90
5962;DHT22;3007;50.770;0.250;2023-04-19T06:32:23;13.70;99.90
5962;DHT22;3007;50.770;0.250;2023-04-19T06:34:50;14.10;99.90
5962;DHT22;3007;50.770;0.250;2023-04-19T06:37:17;14.20;99.90
5962;DHT22;3007;50.770;0.250;2023-04-19T06:39:44;14.00;99.90
5962;DHT22;3007;50.770;0.250;2023-04-19T06:42:11;13.60;99.90
5962;DHT22;3007;50.770;0.250;2023-04-19T06:44:37;13.40;99.90
5962;DHT22;3007;50.770;0.250;2023-04-19T06:47:04;13.20;99.90
5962;DHT22;3007;50.770;0.250;2023-04-19T06:49:33;13.00;99.90
5962;DHT22;3007;50.770;0.250;2023-04-19T06:52:00;12.90;99.90
5962;DHT22;3007;50.770;0.250;2023-04-19T06:54:27;13.00;99.90
5962;DHT22;3007;50.770;0.250;2023-04-19T06:56:55;13.50;99.90
5962;DHT22;3007;50.770;0.250;2023-04-19T06:59:22;14.00;99.90
5962;DHT22;3007;50.770;0.250;2023-04-19T07:01:53;14.30;99.90
5962;DHT22;3007;50.770;0.250;2023-04-19T07:04:21;14.70;99.90
5962;DHT22;3007;50.770;0.250;2023-04-19T07:06:49;15.00;99.90
5962;DHT22;3007;50.770;0.250;2023-04-19T07:09:16;15.20;99.90
5962;DHT22;3007;50.770;0.250;2023-04-19T07:11:43;15.40;99.90
5962;DHT22;3007;50.770;0.250;2023-04-19T07:14:09;15.50;99.90
5962;DHT22;3007;50.770;0.250;2023-04-19T07:16:36;15.60;99.90
5962;DHT22;3007;50.770;0.250;2023-04-19T07:19:03;15.70;99.90
5962;DHT22;3007;50.770;0.250;2023-04-19T07:21:30;15.60;99.90
5962;DHT22;3007;50.770;0.250;2023-04-19T07:24:00;15.70;99.90
5962;DHT22;3007;50.770;0.250;2023-04-19T07:26:27;15.80;99.90
5962;DHT22;3007;50.770;0.250;2023-04-19T07:28:54;15.70;99.90
5962;DHT22;3007;50.770;0.250;2023-04-19T07:31:21;15.70;99.90
5962;DHT22;3007;50.770;0.250;2023-04-19T07:33:49;15.80;99.90
5962;DHT22;3007;50.770;0.250;2023-04-19T07:36:16;15.90;99.90
5962;DHT22;3007;50.770;0.250;2023-04-19T07:38:43;16.00;99.90
5962;DHT22;3007;50.770;0.250;2023-04-19T07:41:11;16.20;99.90
5962;DHT22;3007;50.770;0.250;2023-04-19T07:43:38;16.20;99.90
5962;DHT22;3007;50.770;0.250;2023-04-19T07:46:08;16.10;99.90
5962;DHT22;3007;50.770;0.250;2023-04-19T07:48:35;16.10;99.90
5962;DHT22;3007;50.770;0.250;2023-04-19T07:51:08;16.10;99.90
5962;DHT22;3007;50.770;0.250;2023-04-19T07:53:35;16.10;99.90
5962;DHT22;3007;50.770;0.250;2023-04-19T07:56:02;15.90;99.90
5962;DHT22;3007;50.770;0.250;2023-04-19T07:58:30;15.90;99.90
5962;DHT22;3007;50.770;0.250;2023-04-19T08:00:58;15.80;99.90
5962;DHT22;3007;50.770;0.250;2023-04-19T08:03:25;15.90;99.90
5962;DHT22;3007;50.770;0.250;2023-04-19T08:05:52;15.80;99.90
5962;DHT22;3007;50.770;0.250;2023-04-19T08:08:19;15.90;99.90
5962;DHT22;3007;50.770;0.250;2023-04-19T08:10:46;15.70;99.90
5962;DHT22;3007;50.770;0.250;2023-04-19T08:13:13;15.80;99.90
5962;DHT22;3007;50.770;0.250;2023-04-19T08:15:41;15.80;99.90
5962;DHT22;3007;50.770;0.250;2023-04-19T08:18:09;15.80;99.90
5962;DHT22;3007;50.770;0.250;2023-04-19T08:20:36;15.90;99.90
5962;DHT22;3007;50.770;0.250;2023-04-19T08:23:03;15.90;99.90
5962;DHT22;3007;50.770;0.250;2023-04-19T08:25:31;15.80;99.90
5962;DHT22;3007;50.770;0.250;2023-04-19T08:27:58;15.80;99.90
5962;DHT22;3007;50.770;0.250;2023-04-19T08:30:25;15.70;99.90
5962;DHT22;3007;50.770;0.250;2023-04-19T08:32:53;15.90;99.90
5962;DHT22;3007;50.770;0.250;2023-04-19T08:35:21;15.90;99.90
5962;DHT22;3007;50.770;0.250;2023-04-19T08:37:49;15.90;99.90
5962;DHT22;3007;50.770;0.250;2023-04-19T08:40:16;15.90;99.90
5962;DHT22;3007;50.770;0.250;2023-04-19T08:42:43;15.70;99.90
5962;DHT22;3007;50.770;0.250;2023-04-19T08:45:11;15.40;99.90
5962;DHT22;3007;50.770;0.250;2023-04-19T08:47:40;15.20;99.90
5962;DHT22;3007;50.770;0.250;2023-04-19T08:50:09;15.10;99.90
5962;DHT22;3007;50.770;0.250;2023-04-19T08:52:36;14.90;99.90
5962;DHT22;3007;50.770;0.250;2023-04-19T08:55:04;14.70;99.90
5962;DHT22;3007;50.770;0.250;2023-04-19T08:57:31;14.40;99.90
5962;DHT22;3007;50.770;0.250;2023-04-19T09:00:01;14.30;99.90
5962;DHT22;3007;50.770;0.250;2023-04-19T09:02:43;14.20;99.90
5962;DHT22;3007;50.770;0.250;2023-04-19T09:05:13;13.90;99.90
5962;DHT22;3007;50.770;0.250;2023-04-19T09:07:40;13.80;99.90
5962;DHT22;3007;50.770;0.250;2023-04-19T09:10:09;13.70;99.90
5962;DHT22;3007;50.770;0.250;2023-04-19T09:12:37;13.70;99.90
5962;DHT22;3007;50.770;0.250;2023-04-19T09:15:05;13.70;99.90
5962;DHT22;3007;50.770;0.250;2023-04-19T09:17:34;13.60;99.90
5962;DHT22;3007;50.770;0.250;2023-04-19T09:20:01;13.70;99.90
5962;DHT22;3007;50.770;0.250;2023-04-19T09:22:30;13.70;99.90
5962;DHT22;3007;50.770;0.250;2023-04-19T09:24:58;13.80;99.90
5962;DHT22;3007;50.770;0.250;2023-04-19T09:27:29;13.80;99.90
5962;DHT22;3007;50.770;0.250;2023-04-19T09:29:57;13.80;99.90
5962;DHT22;3007;50.770;0.250;2023-04-19T09:32:25;13.90;99.90
5962;DHT22;3007;50.770;0.250;2023-04-19T09:34:53;14.10;99.90
5962;DHT22;3007;50.770;0.250;2023-04-19T09:37:21;14.30;99.90
5962;DHT22;3007;50.770;0.250;2023-04-19T09:39:49;14.40;99.90
5962;DHT22;3007;50.770;0.250;2023-04-19T09:42:16;14.60;99.90
5962;DHT22;3007;50.770;0.250;2023-04-19T09:44:57;14.70;99.90
5962;DHT22;3007;50.770;0.250;2023-04-19T09:47:25;14.80;99.90
5962;DHT22;3007;50.770;0.250;2023-04-19T09:50:07;14.90;99.90
5962;DHT22;3007;50.770;0.250;2023-04-19T09:52:35;14.90;99.90
5962;DHT22;3007;50.770;0.250;2023-04-19T09:55:05;15.00;99.90
5962;DHT22;3007;50.770;0.250;2023-04-19T09:57:33;15.00;99.90
5962;DHT22;3007;50.770;0.250;2023-04-19T10:00:01;15.00;99.90
5962;DHT22;3007;50.770;0.250;2023-04-19T10:02:32;15.00;99.90
5962;DHT22;3007;50.770;0.250;2023-04-19T10:04:59;15.10;99.90
5962;DHT22;3007;50.770;0.250;2023-04-19T10:07:26;15.10;99.90
5962;DHT22;3007;50.770;0.250;2023-04-19T10:09:57;15.10;99.90
5962;DHT22;3007;50.770;0.250;2023-04-19T10:12:26;15.20;99.90
5962;DHT22;3007;50.770;0.250;2023-04-19T10:14:54;15.40;99.90
5962;DHT22;3007;50.770;0.250;2023-04-19T10:17:22;15.40;99.90
5962;DHT22;3007;50.770;0.250;2023-04-19T10:19:54;15.50;99.90
5962;DHT22;3007;50.770;0.250;2023-04-19T10:22:22;15.40;99.90
5962;DHT22;3007;50.770;0.250;2023-04-19T10:25:09;15.40;99.90
5962;DHT22;3007;50.770;0.250;2023-04-19T10:27:39;15.40;99.90
5962;DHT22;3007;50.770;0.250;2023-04-19T10:30:16;15.40;99.90
5962;DHT22;3007;50.770;0.250;2023-04-19T10:32:44;15.30;99.90
5962;DHT22;3007;50.770;0.250;2023-04-19T10:35:17;15.20;99.90
5962;DHT22;3007;50.770;0.250;2023-04-19T10:38:05;15.10;99.90
5962;DHT22;3007;50.770;0.250;2023-04-19T10:40:57;15.00;99.90
5962;DHT22;3007;50.770;0.250;2023-04-19T10:43:27;14.90;99.90
5962;DHT22;3007;50.770;0.250;2023-04-19T10:45:57;14.90;99.90
5962;DHT22;3007;50.770;0.250;2023-04-19T10:48:39;14.90;99.90
5962;DHT22;3007;50.770;0.250;2023-04-19T10:51:13;14.80;99.90
5962;DHT22;3007;50.770;0.250;2023-04-19T10:53:54;14.70;99.90
5962;DHT22;3007;50.770;0.250;2023-04-19T10:59:37;14.50;99.90
5962;DHT22;3007;50.770;0.250;2023-04-19T11:02:27;14.50;99.90
5962;DHT22;3007;50.770;0.250;2023-04-19T11:04:59;14.50;99.90
5962;DHT22;3007;50.770;0.250;2023-04-19T11:07:26;14.60;99.90
5962;DHT22;3007;50.770;0.250;2023-04-19T11:09:53;14.50;99.90
5962;DHT22;3007;50.770;0.250;2023-04-19T11:12:20;14.40;99.90
5962;DHT22;3007;50.770;0.250;2023-04-19T11:14:51;14.40;99.90
5962;DHT22;3007;50.770;0.250;2023-04-19T11:17:20;14.40;99.90
5962;DHT22;3007;50.770;0.250;2023-04-19T11:19:53;14.30;99.90
5962;DHT22;3007;50.770;0.250;2023-04-19T11:22:24;14.40;99.90
5962;DHT22;3007;50.770;0.250;2023-04-19T11:24:52;14.40;99.90
5962;DHT22;3007;50.770;0.250;2023-04-19T11:27:19;14.40;99.90
5962;DHT22;3007;50.770;0.250;2023-04-19T11:29:48;14.50;99.90
5962;DHT22;3007;50.770;0.250;2023-04-19T11:32:14;14.50;99.90
5962;DHT22;3007;50.770;0.250;2023-04-19T11:34:41;14.40;99.90
5962;DHT22;3007;50.770;0.250;2023-04-19T11:37:09;14.40;99.90
5962;DHT22;3007;50.770;0.250;2023-04-19T11:39:44;14.40;99.90
5962;DHT22;3007;50.770;0.250;2023-04-19T11:42:16;14.30;99.90
5962;DHT22;3007;50.770;0.250;2023-04-19T11:44:49;14.30;99.90
5962;DHT22;3007;50.770;0.250;2023-04-19T11:47:17;14.30;99.90
5962;DHT22;3007;50.770;0.250;2023-04-19T11:49:44;14.30;99.90
5962;DHT22;3007;50.770;0.250;2023-04-19T11:52:11;14.30;99.90
5962;DHT22;3007;50.770;0.250;2023-04-19T11:54:45;14.20;99.90
5962;DHT22;3007;50.770;0.250;2023-04-19T11:57:12;14.10;99.90
5962;DHT22;3007;50.770;0.250;2023-04-19T12:00:07;14.20;99.90
5962;DHT22;3007;50.770;0.250;2023-04-19T12:02:37;14.20;99.90
5962;DHT22;3007;50.770;0.250;2023-04-19T12:05:11;14.20;99.90
5962;DHT22;3007;50.770;0.250;2023-04-19T12:08:00;14.10;99.90
5962;DHT22;3007;50.770;0.250;2023-04-19T12:10:27;14.00;99.90
5962;DHT22;3007;50.770;0.250;2023-04-19T12:12:54;14.00;99.90
5962;DHT22;3007;50.770;0.250;2023-04-19T12:15:22;14.00;99.90
5962;DHT22;3007;50.770;0.250;2023-04-19T12:17:57;14.10;99.90
5962;DHT22;3007;50.770;0.250;2023-04-19T12:20:30;14.00;99.90
5962;DHT22;3007;50.770;0.250;2023-04-19T12:22:58;14.10;99.90
5962;DHT22;3007;50.770;0.250;2023-04-19T12:25:28;14.10;99.90
5962;DHT22;3007;50.770;0.250;2023-04-19T12:27:56;14.10;24.10
5962;DHT22;3007;50.770;0.250;2023-04-19T12:30:24;14.10;18.50
5962;DHT22;3007;50.770;0.250;2023-04-19T12:32:51;14.20;27.10
5962;DHT22;3007;50.770;0.250;2023-04-19T12:35:20;14.20;14.90
5962;DHT22;3007;50.770;0.250;2023-04-19T12:37:47;14.20;17.10
5962;DHT22;3007;50.770;0.250;2023-04-19T12:40:14;14.20;13.60
5962;DHT22;3007;50.770;0.250;2023-04-19T12:42:41;14.30;3.80
5962;DHT22;3007;50.770;0.250;2023-04-19T12:45:09;14.30;1.00
5962;DHT22;3007;50.770;0.250;2023-04-19T12:47:37;14.40;1.00
5962;DHT22;3007;50.770;0.250;2023-04-19T12:50:06;14.50;1.00
5962;DHT22;3007;50.770;0.250;2023-04-19T12:52:33;14.50;1.00
5962;DHT22;3007;50.770;0.250;2023-04-19T12:55:00;14.50;1.00
5962;DHT22;3007;50.770;0.250;2023-04-19T12:57:27;14.60;1.00
5962;DHT22;3007;50.770;0.250;2023-04-19T12:59:54;14.60;99.90
5962;DHT22;3007;50.770;0.250;2023-04-19T13:02:21;14.60;99.90
5962;DHT22;3007;50.770;0.250;2023-04-19T13:04:50;14.80;1.00
5962;DHT22;3007;50.770;0.250;2023-04-19T13:07:17;14.90;1.00
5962;DHT22;3007;50.770;0.250;2023-04-19T13:09:43;14.90;1.00
5962;DHT22;3007;50.770;0.250;2023-04-19T13:12:10;14.90;1.00
5962;DHT22;3007;50.770;0.250;2023-04-19T13:14:37;14.80;1.00
5962;DHT22;3007;50.770;0.250;2023-04-19T13:17:04;14.80;1.00
5962;DHT22;3007;50.770;0.250;2023-04-19T13:19:33;14.80;1.00
5962;DHT22;3007;50.770;0.250;2023-04-19T13:22:01;14.80;1.00
5962;DHT22;3007;50.770;0.250;2023-04-19T13:24:28;14.90;1.00
5962;DHT22;3007;50.770;0.250;2023-04-19T13:26:55;14.80;1.00
5962;DHT22;3007;50.770;0.250;2023-04-19T13:29:22;14.90;1.00
5962;DHT22;3007;50.770;0.250;2023-04-19T13:31:49;15.00;1.00
5962;DHT22;3007;50.770;0.250;2023-04-19T13:34:16;15.10;1.00
5962;DHT22;3007;50.770;0.250;2023-04-19T13:36:43;15.20;1.00
5962;DHT22;3007;50.770;0.250;2023-04-19T13:39:11;15.40;1.00
5962;DHT22;3007;50.770;0.250;2023-04-19T13:41:38;15.60;1.00
5962;DHT22;3007;50.770;0.250;2023-04-19T13:44:05;15.80;1.00
5962;DHT22;3007;50.770;0.250;2023-04-19T13:46:32;15.80;1.00
5962;DHT22;3007;50.770;0.250;2023-04-19T13:48:59;15.90;1.00
5962;DHT22;3007;50.770;0.250;2023-04-19T13:51:25;16.10;1.00
5962;DHT22;3007;50.770;0.250;2023-04-19T13:53:53;16.20;1.00
5962;DHT22;3007;50.770;0.250;2023-04-19T13:56:21;16.10;1.00
5962;DHT22;3007;50.770;0.250;2023-04-19T13:58:48;16.30;1.00
5962;DHT22;3007;50.770;0.250;2023-04-19T14:01:15;16.30;1.00
5962;DHT22;3007;50.770;0.250;2023-04-19T14:03:42;16.30;1.00
5962;DHT22;3007;50.770;0.250;2023-04-19T14:06:08;16.50;1.00
5962;DHT22;3007;50.770;0.250;2023-04-19T14:08:35;16.60;1.00
5962;DHT22;3007;50.770;0.250;2023-04-19T14:11:03;16.80;1.00
5962;DHT22;3007;50.770;0.250;2023-04-19T14:13:32;16.80;1.00
5962;DHT22;3007;50.770;0.250;2023-04-19T14:15:59;16.80;1.00
5962;DHT22;3007;50.770;0.250;2023-04-19T14:18:25;16.70;1.00
5962;DHT22;3007;50.770;0.250;2023-04-19T14:23:20;16.70;1.00
5962;DHT22;3007;50.770;0.250;2023-04-19T14:25:47;16.70;1.00
5962;DHT22;3007;50.770;0.250;2023-04-19T14:28:14;16.70;1.00
5962;DHT22;3007;50.770;0.250;2023-04-19T14:30:42;16.60;1.00
5962;DHT22;3007;50.770;0.250;2023-04-19T14:33:09;16.50;1.00
5962;DHT22;3007;50.770;0.250;2023-04-19T14:35:36;16.60;1.00
5962;DHT22;3007;50.770;0.250;2023-04-19T14:38:03;16.60;1.00
5962;DHT22;3007;50.770;0.250;2023-04-19T14:40:30;16.70;1.00
5962;DHT22;3007;50.770;0.250;2023-04-19T14:42:56;16.70;1.00
5962;DHT22;3007;50.770;0.250;2023-04-19T14:45:23;16.70;1.00
5962;DHT22;3007;50.770;0.250;2023-04-19T14:47:53;16.80;1.00
5962;DHT22;3007;50.770;0.250;2023-04-19T14:50:20;16.70;1.00
5962;DHT22;3007;50.770;0.250;2023-04-19T14:52:47;16.80;1.00
5962;DHT22;3007;50.770;0.250;2023-04-19T14:55:14;16.90;1.00
5962;DHT22;3007;50.770;0.250;2023-04-19T14:57:40;17.00;1.00
5962;DHT22;3007;50.770;0.250;2023-04-19T15:00:08;17.10;1.00
5962;DHT22;3007;50.770;0.250;2023-04-19T15:02:35;17.10;1.00
5962;DHT22;3007;50.770;0.250;2023-04-19T15:05:05;17.00;1.00
5962;DHT22;3007;50.770;0.250;2023-04-19T15:07:32;16.80;1.00
5962;DHT22;3007;50.770;0.250;2023-04-19T15:09:59;16.70;1.00
5962;DHT22;3007;50.770;0.250;2023-04-19T15:12:26;16.70;1.00
5962;DHT22;3007;50.770;0.250;2023-04-19T15:14:53;16.60;1.00
5962;DHT22;3007;50.770;0.250;2023-04-19T15:17:20;16.50;1.00
5962;DHT22;3007;50.770;0.250;2023-04-19T15:19:47;16.50;1.00
5962;DHT22;3007;50.770;0.250;2023-04-19T15:22:15;16.40;1.00
5962;DHT22;3007;50.770;0.250;2023-04-19T15:24:42;16.40;1.00
5962;DHT22;3007;50.770;0.250;2023-04-19T15:27:09;16.30;1.00
5962;DHT22;3007;50.770;0.250;2023-04-19T15:29:36;16.30;1.00
5962;DHT22;3007;50.770;0.250;2023-04-19T15:32:04;16.20;1.00
5962;DHT22;3007;50.770;0.250;2023-04-19T15:34:31;16.00;1.00
5962;DHT22;3007;50.770;0.250;2023-04-19T15:36:58;16.00;1.00
5962;DHT22;3007;50.770;0.250;2023-04-19T15:39:27;15.80;1.00
5962;DHT22;3007;50.770;0.250;2023-04-19T15:41:54;15.80;1.00
5962;DHT22;3007;50.770;0.250;2023-04-19T15:44:21;15.70;1.00
5962;DHT22;3007;50.770;0.250;2023-04-19T15:46:50;15.70;1.00
5962;DHT22;3007;50.770;0.250;2023-04-19T15:49:16;15.70;1.00
5962;DHT22;3007;50.770;0.250;2023-04-19T15:51:43;15.60;1.00
5962;DHT22;3007;50.770;0.250;2023-04-19T15:54:12;15.50;1.00
5962;DHT22;3007;50.770;0.250;2023-04-19T15:56:41;15.50;1.00
5962;DHT22;3007;50.770;0.250;2023-04-19T15:59:08;15.50;1.00
5962;DHT22;3007;50.770;0.250;2023-04-19T16:01:35;15.40;1.00
5962;DHT22;3007;50.770;0.250;2023-04-19T16:04:02;15.40;1.00
5962;DHT22;3007;50.770;0.250;2023-04-19T16:06:29;15.20;1.00
5962;DHT22;3007;50.770;0.250;2023-04-19T16:08:56;15.10;1.00
5962;DHT22;3007;50.770;0.250;2023-04-19T16:11:23;15.00;1.00
5962;DHT22;3007;50.770;0.250;2023-04-19T16:13:51;14.90;1.00
5962;DHT22;3007;50.770;0.250;2023-04-19T16:16:18;14.90;1.00
5962;DHT22;3007;50.770;0.250;2023-04-19T16:18:45;14.80;1.00
5962;DHT22;3007;50.770;0.250;2023-04-19T16:21:12;14.70;1.00
5962;DHT22;3007;50.770;0.250;2023-04-19T16:23:39;14.60;1.00